EDT,Max TemperatureF,Mean TemperatureF,Min TemperatureF,Max Dew PointF,MeanDew PointF,Min DewpointF,Max Humidity, Mean Humidity, Min Humidity, Max Sea Level PressureIn, Mean Sea Level PressureIn, Min Sea Level PressureIn, Max VisibilityMiles, Mean VisibilityMiles, Min VisibilityMiles, Max Wind SpeedMPH, Mean Wind SpeedMPH, Max Gust SpeedMPH,PrecipitationIn, CloudCover, Events, WindDirDegrees
2012-10-1,59,58,57,55,55,54,88,88,88,29.94,29.90,29.86,10,6,2,12,2,18,0.06,7,Rain,71
2012-10-2,75,67,59,70,64,55,94,90,83,29.99,29.88,29.82,10,7,2,13,5,18,0.48,7,Rain,82
2012-10-3,78,71,64,66,63,61,94,82,61,30.21,30.11,29.99,10,8,5,10,1,,0.00,3,,204
2012-10-4,78,68,59,63,58,52,94,74,39,30.26,30.22,30.18,10,8,3,8,1,,0.00,1,Rain,305
2012-10-5,77,64,51,59,54,50,94,73,41,30.24,30.14,30.04,10,10,7,6,1,,0.00,0,,214
2012-10-6,77,65,53,61,55,50,94,77,54,30.04,29.98,29.95,10,9,3,8,2,,0.12,4,Rain,315
2012-10-7,55,50,44,52,46,41,88,83,71,30.17,30.07,30.01,10,10,2,13,3,20,0.33,6,Rain,42
2012-10-8,48,45,42,43,42,39,93,85,71,30.25,30.18,30.15,10,8,2,12,2,16,0.02,7,Rain,51
2012-10-9,60,52,44,52,47,43,94,83,63,30.19,30.13,30.08,10,10,10,6,1,,0.01,8,,137
2012-10-10,68,55,42,52,46,41,94,73,49,30.15,30.06,30.02,10,10,7,10,2,20,0.00,2,,275
2012-10-11,64,52,41,46,38,32,93,63,34,30.31,30.24,30.15,10,10,10,8,3,,0.00,0,,313
2012-10-12,71,56,42,48,42,37,93,66,31,30.34,30.23,30.18,10,10,10,8,1,,0.00,0,,314
2012-10-13,62,52,41,46,40,36,93,63,42,30.49,30.40,30.33,10,10,10,13,4,22,0.00,0,,114
2012-10-14,68,55,42,57,50,39,93,78,60,30.33,30.19,30.04,10,10,10,9,1,,0.00,5,,210
2012-10-15,73,64,55,63,52,37,94,71,33,30.02,29.88,29.76,10,9,3,14,3,25,0.45,5,Rain,262
2012-10-16,69,56,42,46,40,32,93,58,25,29.98,29.92,29.87,10,10,10,12,4,16,0.00,0,,305
2012-10-17,69,56,42,48,45,39,93,69,40,30.00,29.94,29.90,10,10,10,10,2,,0.00,0,,172
2012-10-18,69,58,46,59,53,45,94,83,64,29.92,29.86,29.78,10,8,1,9,1,,0.13,6,Rain,161
2012-10-19,68,57,46,55,44,34,94,65,30,29.78,29.75,29.70,10,8,0,10,2,17,0.01,1,Fog,207
2012-10-20,64,53,42,43,40,36,93,64,34,29.99,29.84,29.76,10,10,10,12,2,18,0.00,0,,302
2012-10-21,68,52,37,45,38,34,93,67,28,30.17,30.09,30.00,10,10,7,8,1,,0.00,0,,325
2012-10-22,75,58,41,54,46,37,93,69,38,30.24,30.18,30.14,10,10,10,7,1,,0.00,0,,195
2012-10-23,78,62,46,55,50,45,93,70,39,30.19,30.15,30.10,10,10,7,8,1,,0.00,0,,190
2012-10-24,80,65,50,54,50,46,94,68,30,30.20,30.15,30.10,10,10,5,5,0,,0.00,0,,205
2012-10-25,77,62,48,57,52,46,94,71,41,30.18,30.14,30.11,10,10,4,7,1,,0.00,0,,155
2012-10-26,71,62,53,59,56,52,94,80,64,30.16,30.08,30.01,10,9,5,9,2,,0.00,1,,84
2012-10-27,69,64,59,59,56,50,88,75,60,30.00,29.87,29.77,10,10,7,12,5,16,0.00,7,,15
2012-10-28,64,56,48,50,44,36,82,66,49,29.81,29.72,29.66,10,10,10,17,8,28,0.00,3,,332
2012-10-29,46,44,42,34,32,30,66,63,57,29.69,29.56,29.37,10,10,10,23,13,34,0.00,8,Rain,310
2012-10-30,46,44,41,30,29,27,61,56,49,29.58,29.42,29.31,10,10,10,20,12,33,0.00,7,,281
2012-10-31,50,46,41,34,32,30,70,60,50,29.76,29.67,29.58,10,10,10,13,5,22,0.00,5,,285